Time;durP1;ratioP1;P1;durP2;ratioP2;P2;SDS_P1;SDS_P2;PMS_P1;PMS_P2;Temp;Humidity;BMP_temperature;BMP_pressure;BME280_temperature;BME280_humidity;BME280_pressure;Samples;Min_cycle;Max_cycle;Signal;HPM_P1;HPM_P2
2023/08/08 00:02:27;;;;;;;3.30;0.80;;;;;;;15.96;59.55;99138.59;4486130;31;33612;-84
2023/08/08 00:04:55;;;;;;;2.30;0.70;;;;;;;16.25;58.71;99151.38;4482542;31;33680;-83
2023/08/08 00:07:22;;;;;;;1.23;0.77;;;;;;;15.83;59.97;99150.03;4483062;31;34255;-83
2023/08/08 00:09:50;;;;;;;1.75;0.80;;;;;;;16.44;58.40;99146.81;4482274;31;33891;-82
2023/08/08 00:12:17;;;;;;;4.20;1.00;;;;;;;16.27;58.81;99148.75;4482214;32;33572;-83
2023/08/08 00:14:45;;;;;;;2.83;0.85;;;;;;;16.45;58.32;99153.78;4482416;32;33968;-83
2023/08/08 00:17:12;;;;;;;2.45;0.80;;;;;;;16.85;57.08;99158.56;4482801;31;34004;-83
2023/08/08 00:19:40;;;;;;;1.75;0.70;;;;;;;16.82;56.81;99158.62;4482111;32;33781;-83
2023/08/08 00:22:07;;;;;;;4.03;1.10;;;;;;;16.13;59.11;99161.94;4481219;32;33111;-83
2023/08/08 00:24:35;;;;;;;2.70;1.15;;;;;;;16.35;58.75;99161.75;4496341;31;33920;-83
2023/08/08 00:27:05;;;;;;;2.95;1.00;;;;;;;16.64;58.09;99157.06;4499381;31;35098;-83
2023/08/08 00:29:32;;;;;;;2.35;1.00;;;;;;;15.90;60.19;99161.31;4468882;32;34514;-84
2023/08/08 00:32:00;;;;;;;3.03;1.00;;;;;;;16.61;58.48;99157.09;4468907;32;33315;-83
2023/08/08 00:34:28;;;;;;;3.03;1.05;;;;;;;16.57;58.47;99157.16;4468691;32;34770;-83
2023/08/08 00:36:56;;;;;;;3.75;1.55;;;;;;;16.09;59.90;99148.94;4468557;32;33939;-84
2023/08/08 00:39:23;;;;;;;2.97;1.15;;;;;;;16.04;60.04;99152.47;4496190;31;33641;-84
2023/08/08 00:41:51;;;;;;;2.80;1.00;;;;;;;16.28;59.64;99151.34;4500168;31;33049;-83
2023/08/08 00:44:19;;;;;;;2.85;0.98;;;;;;;16.53;58.89;99149.31;4500216;31;34769;-83
2023/08/08 00:46:46;;;;;;;3.47;1.50;;;;;;;16.18;59.78;99154.09;4500021;31;33949;-83
2023/08/08 00:49:14;;;;;;;4.30;1.30;;;;;;;16.01;60.49;99143.78;4485393;31;35005;-83
2023/08/08 00:51:41;;;;;;;5.75;1.37;;;;;;;15.90;61.02;99159.56;4484142;32;33780;-83
2023/08/08 00:54:10;;;;;;;4.55;1.37;;;;;;;15.89;60.91;99155.22;4494901;31;33670;-84
2023/08/08 00:56:38;;;;;;;4.00;1.20;;;;;;;16.11;60.44;99149.78;4500107;31;33807;-83
2023/08/08 00:59:07;;;;;;;4.60;1.40;;;;;;;16.06;60.63;99149.81;4485981;31;34544;-83
2023/08/08 01:01:34;;;;;;;3.05;1.08;;;;;;;16.33;60.14;99148.69;4484214;32;34088;-83
2023/08/08 01:04:06;;;;;;;4.45;1.20;;;;;;;15.73;61.61;99146.63;4484443;32;33511;-83
2023/08/08 01:06:45;;;;;;;2.92;1.40;;;;;;;15.96;60.92;99148.19;4484132;32;33921;-83
2023/08/08 01:09:19;;;;;;;2.85;1.10;;;;;;;16.20;60.26;99149.69;4471888;31;33958;-84
2023/08/08 01:11:49;;;;;;;3.37;1.10;;;;;;;15.59;62.55;99148.47;4471057;31;34013;-84
2023/08/08 01:14:18;;;;;;;3.05;1.23;;;;;;;15.78;62.62;99150.06;4483837;32;34095;-83
2023/08/08 01:16:46;;;;;;;2.95;1.10;;;;;;;16.06;61.16;99155.03;4482773;32;34111;-83
2023/08/08 01:19:28;;;;;;;3.55;1.10;;;;;;;15.88;61.50;99156.09;4482558;32;33758;-83
2023/08/08 01:22:00;;;;;;;3.10;0.90;;;;;;;15.72;62.12;99150.16;4482856;32;32932;-84
2023/08/08 01:24:32;;;;;;;5.53;1.45;;;;;;;15.93;61.54;99146.47;4468633;31;34609;-83
2023/08/08 01:27:00;;;;;;;2.30;1.17;;;;;;;15.40;63.22;99142.50;4468313;32;34311;-83
2023/08/08 01:29:28;;;;;;;4.00;1.00;;;;;;;15.91;61.64;99139.50;4482965;32;34440;-84
2023/08/08 01:31:55;;;;;;;3.95;1.08;;;;;;;15.91;61.75;99142.13;4482964;32;31995;-83
2023/08/08 01:34:24;;;;;;;2.37;1.17;;;;;;;15.73;62.72;99141.41;4483010;32;34056;-84
2023/08/08 01:36:54;;;;;;;3.87;1.33;;;;;;;15.34;63.76;99142.53;4483705;32;34786;-84
2023/08/08 01:39:26;;;;;;;5.90;1.37;;;;;;;15.74;62.59;99131.81;4497244;31;34148;-85
2023/08/08 01:41:55;;;;;;;4.15;1.40;;;;;;;15.81;62.05;99139.59;4487479;31;33190;-84
2023/08/08 01:44:24;;;;;;;3.08;1.33;;;;;;;15.75;62.57;99134.41;4482792;32;34662;-84
2023/08/08 01:46:53;;;;;;;3.17;1.08;;;;;;;15.64;63.09;99148.41;4483555;32;34769;-83
2023/08/08 01:49:21;;;;;;;3.45;1.10;;;;;;;15.24;63.93;99151.34;4483613;32;33886;-84
2023/08/08 01:51:50;;;;;;;3.25;1.10;;;;;;;15.40;63.69;99154.69;4483882;31;33171;-83
2023/08/08 01:54:19;;;;;;;4.62;1.40;;;;;;;14.96;64.93;99154.06;4499547;31;34143;-83
2023/08/08 01:56:47;;;;;;;3.22;1.00;;;;;;;15.11;64.64;99154.87;4499561;31;34737;-83
2023/08/08 01:59:14;;;;;;;3.03;1.00;;;;;;;15.75;63.03;99146.63;4499767;31;34385;-84
2023/08/08 02:01:42;;;;;;;5.25;1.35;;;;;;;15.43;63.78;99149.47;4489849;31;34207;-84
2023/08/08 02:04:10;;;;;;;3.80;1.20;;;;;;;15.20;64.54;99160.06;4483648;32;33821;-84
2023/08/08 02:06:38;;;;;;;3.70;1.20;;;;;;;14.98;65.43;99154.09;4484163;31;33361;-83
2023/08/08 02:09:05;;;;;;;1.80;0.90;;;;;;;15.21;64.59;99161.78;4499390;31;34551;-83
2023/08/08 02:11:34;;;;;;;3.65;1.20;;;;;;;15.41;63.82;99152.06;4491011;31;33097;-84
2023/08/08 02:14:02;;;;;;;2.53;1.12;;;;;;;15.44;63.46;99157.28;4483865;32;33583;-84
2023/08/08 02:16:30;;;;;;;3.00;1.20;;;;;;;15.11;64.83;99162.72;4483983;32;33663;-83
2023/08/08 02:18:58;;;;;;;4.70;1.30;;;;;;;14.69;66.29;99162.91;4483627;32;34658;-82
2023/08/08 02:21:26;;;;;;;4.90;1.33;;;;;;;15.00;65.48;99166.25;4483628;32;33253;-84
2023/08/08 02:23:54;;;;;;;2.53;1.02;;;;;;;14.97;65.67;99165.41;4499014;31;33680;-83
2023/08/08 02:26:21;;;;;;;4.65;1.20;;;;;;;15.01;65.07;99168.00;4499400;31;35121;-83
2023/08/08 02:28:49;;;;;;;3.17;1.33;;;;;;;15.09;64.93;99170.56;4499492;31;34964;-84
2023/08/08 02:31:20;;;;;;;4.53;1.60;;;;;;;15.04;65.32;99180.19;4493100;31;34515;-83
2023/08/08 02:33:50;;;;;;;4.22;1.48;;;;;;;14.95;65.54;99178.44;4483401;32;33918;-83
2023/08/08 02:36:18;;;;;;;2.37;1.00;;;;;;;15.29;64.28;99184.34;4483541;31;34654;-83
2023/08/08 02:38:46;;;;;;;2.65;1.02;;;;;;;15.30;64.42;99183.50;4490601;31;33827;-83
2023/08/08 02:41:13;;;;;;;3.42;1.37;;;;;;;15.14;64.81;99194.03;4482069;32;33600;-83
2023/08/08 02:43:41;;;;;;;3.90;1.30;;;;;;;15.17;64.48;99191.41;4483728;32;33969;-84
2023/08/08 02:46:09;;;;;;;2.15;1.10;;;;;;;14.90;65.71;99195.03;4483217;32;33922;-83
2023/08/08 02:48:36;;;;;;;4.03;1.27;;;;;;;15.02;65.18;99203.66;4482886;32;33900;-83
2023/08/08 02:51:04;;;;;;;5.55;1.10;;;;;;;14.90;65.46;99193.28;4484025;31;33212;-83
2023/08/08 02:53:32;;;;;;;4.03;1.15;;;;;;;15.16;64.60;99189.69;4499702;31;34960;-83
2023/08/08 02:56:01;;;;;;;2.78;1.12;;;;;;;15.21;64.55;99193.13;4499332;31;34179;-84
2023/08/08 02:58:29;;;;;;;3.37;1.23;;;;;;;15.24;64.32;99198.34;4490525;31;33792;-85
2023/08/08 03:00:57;;;;;;;2.75;0.95;;;;;;;15.27;64.22;99203.56;4483460;32;32868;-84
2023/08/08 03:03:25;;;;;;;2.30;1.20;;;;;;;15.46;63.90;99202.56;4483545;32;34627;-84
2023/08/08 03:05:52;;;;;;;3.17;1.48;;;;;;;15.15;64.42;99208.81;4483978;31;33874;-84
2023/08/08 03:08:20;;;;;;;2.33;1.27;;;;;;;15.37;63.57;99201.75;4491846;31;33854;-83
2023/08/08 03:10:47;;;;;;;4.00;1.52;;;;;;;15.27;63.90;99206.16;4483344;32;34143;-84
2023/08/08 03:13:15;;;;;;;4.00;1.20;;;;;;;15.40;63.55;99207.81;4483401;32;33961;-83
2023/08/08 03:15:42;;;;;;;3.08;1.12;;;;;;;15.41;63.29;99219.12;4483743;32;33687;-84
2023/08/08 03:18:10;;;;;;;2.95;1.15;;;;;;;15.73;62.23;99208.50;4483440;32;34952;-83
2023/08/08 03:20:38;;;;;;;3.25;1.20;;;;;;;15.74;61.96;99221.56;4483253;32;33657;-84
2023/08/08 03:23:06;;;;;;;3.33;1.08;;;;;;;15.86;61.64;99217.97;4498640;31;33104;-84
2023/08/08 03:25:34;;;;;;;3.35;1.20;;;;;;;15.89;61.56;99227.56;4486103;31;34094;-84
2023/08/08 03:28:02;;;;;;;4.87;1.40;;;;;;;15.86;61.95;99220.59;4483704;32;33927;-84
2023/08/08 03:30:30;;;;;;;2.95;1.17;;;;;;;15.62;62.58;99236.44;4483488;32;33389;-83
2023/08/08 03:32:58;;;;;;;2.85;1.20;;;;;;;15.84;62.05;99231.97;4483124;32;34514;-84
2023/08/08 03:35:26;;;;;;;2.55;1.10;;;;;;;15.73;62.38;99239.87;4482573;32;35015;-82
2023/08/08 03:37:54;;;;;;;3.53;1.15;;;;;;;15.11;63.72;99235.81;4498326;31;34212;-84
2023/08/08 03:40:21;;;;;;;3.40;1.23;;;;;;;15.46;62.68;99241.75;4499072;31;32976;-84
2023/08/08 03:42:49;;;;;;;3.12;1.23;;;;;;;15.41;62.92;99240.88;4498755;31;34571;-85
2023/08/08 03:45:16;;;;;;;3.50;1.30;;;;;;;15.32;63.22;99251.41;4486529;31;34286;-84
2023/08/08 03:47:45;;;;;;;3.67;1.10;;;;;;;15.41;62.19;99246.13;4483084;32;34078;-85
2023/08/08 03:50:13;;;;;;;3.00;1.20;;;;;;;15.40;62.50;99236.56;4490894;31;33457;-83
2023/08/08 03:52:41;;;;;;;4.15;1.50;;;;;;;15.67;61.94;99242.50;4484380;31;33657;-85
2023/08/08 03:55:08;;;;;;;2.90;1.55;;;;;;;15.53;62.09;99245.16;4483353;31;33847;-84
2023/08/08 03:57:38;;;;;;;2.70;1.10;;;;;;;15.63;61.67;99243.38;4482061;31;33777;-84
2023/08/08 04:00:08;;;;;;;4.60;1.58;;;;;;;15.45;62.32;99245.22;4482543;32;34333;-84
2023/08/08 04:02:40;;;;;;;4.82;1.60;;;;;;;15.08;63.36;99250.66;4482830;32;34978;-84
2023/08/08 04:05:08;;;;;;;3.42;1.23;;;;;;;15.08;63.15;99255.88;4481989;32;34185;-84
2023/08/08 04:07:36;;;;;;;4.75;1.42;;;;;;;15.43;61.72;99256.56;4483866;31;34143;-83
2023/08/08 04:10:03;;;;;;;4.15;1.62;;;;;;;15.06;63.29;99259.34;4488825;31;33237;-82
2023/08/08 04:12:32;;;;;;;3.85;1.85;;;;;;;15.22;62.32;99263.63;4489045;31;34773;-84
2023/08/08 04:15:00;;;;;;;3.72;1.33;;;;;;;15.43;61.46;99265.28;4482078;31;35250;-84
2023/08/08 04:17:28;;;;;;;3.67;1.30;;;;;;;15.31;62.13;99262.72;4482730;32;33953;-84
2023/08/08 04:19:56;;;;;;;4.60;1.48;;;;;;;15.49;61.69;99278.31;4494100;31;33776;-83
2023/08/08 04:22:24;;;;;;;3.28;1.35;;;;;;;15.48;61.92;99276.56;4495794;31;33364;-84
2023/08/08 04:24:51;;;;;;;4.15;1.80;;;;;;;15.68;61.82;99275.59;4490684;31;34013;-83
2023/08/08 04:27:19;;;;;;;4.57;1.55;;;;;;;15.21;62.63;99274.09;4498395;31;33834;-83
2023/08/08 04:29:47;;;;;;;4.40;1.30;;;;;;;15.39;62.50;99280.97;4498234;31;33977;-83
2023/08/08 04:32:14;;;;;;;3.58;1.42;;;;;;;15.69;61.04;99286.06;4497926;31;33726;-83
2023/08/08 04:34:42;;;;;;;4.35;1.62;;;;;;;15.71;61.35;99284.31;4482210;32;34540;-83
2023/08/08 04:37:09;;;;;;;4.22;1.77;;;;;;;16.36;59.34;99279.44;4482737;31;32981;-82
2023/08/08 04:39:37;;;;;;;2.95;1.25;;;;;;;16.85;58.06;99276.37;4488193;31;33298;-82
2023/08/08 04:42:05;;;;;;;4.32;1.58;;;;;;;16.99;57.11;99281.47;4482635;32;33969;-83
2023/08/08 04:44:32;;;;;;;3.10;1.37;;;;;;;17.55;55.86;99282.53;4481979;32;34080;-83
2023/08/08 04:47:00;;;;;;;5.30;1.58;;;;;;;17.71;55.57;99278.78;4481993;32;33692;-83
2023/08/08 04:49:28;;;;;;;3.65;1.33;;;;;;;18.14;54.00;99285.19;4481371;31;33298;-85
2023/08/08 04:51:56;;;;;;;4.60;1.23;;;;;;;18.54;53.05;99281.91;4480477;31;34013;-83
2023/08/08 04:54:24;;;;;;;2.92;1.30;;;;;;;18.88;51.65;99283.03;4483098;31;34423;-84
2023/08/08 04:56:52;;;;;;;5.75;3.00;;;;;;;19.13;51.33;99287.78;4481747;31;34155;-84
2023/08/08 04:59:19;;;;;;;3.85;1.45;;;;;;;19.36;50.03;99282.97;4481557;32;34511;-83
2023/08/08 05:01:47;;;;;;;4.22;1.12;;;;;;;19.65;49.26;99286.75;4483007;31;33445;-84
2023/08/08 05:04:15;;;;;;;2.97;1.20;;;;;;;19.20;49.84;99292.03;4481812;32;33848;-84
2023/08/08 05:06:42;;;;;;;4.50;1.73;;;;;;;19.63;49.23;99286.78;4481580;32;33939;-84
2023/08/08 05:09:09;;;;;;;4.85;1.35;;;;;;;19.59;49.09;99292.13;4490314;31;34208;-85
2023/08/08 05:11:37;;;;;;;3.87;1.30;;;;;;;19.44;49.35;99288.06;4493771;31;34745;-84
2023/08/08 05:14:05;;;;;;;5.20;1.20;;;;;;;19.84;49.49;99293.31;4499438;31;34002;-86
2023/08/08 05:16:32;;;;;;;4.03;1.40;;;;;;;19.19;50.06;99291.19;4496109;31;34686;-86
2023/08/08 05:19:00;;;;;;;4.05;1.40;;;;;;;19.78;48.45;99301.38;4486430;31;34067;-84
2023/08/08 05:21:27;;;;;;;3.10;1.25;;;;;;;20.02;47.14;99301.69;4482649;31;33749;-85
2023/08/08 05:23:55;;;;;;;3.35;1.20;;;;;;;19.97;47.86;99303.56;4483910;32;35072;-85
2023/08/08 05:26:22;;;;;;;3.30;1.48;;;;;;;19.28;49.31;99305.91;4484188;32;33840;-85
2023/08/08 05:28:50;;;;;;;4.15;1.40;;;;;;;19.77;49.03;99302.25;4494244;31;34103;-84
2023/08/08 05:31:19;;;;;;;3.20;1.40;;;;;;;19.20;49.63;99305.19;4499852;31;34400;-85
2023/08/08 05:33:48;;;;;;;3.45;1.55;;;;;;;19.61;49.17;99298.19;4499621;31;34255;-84
2023/08/08 05:36:16;;;;;;;2.55;1.10;;;;;;;19.22;49.86;99308.66;4498723;31;34581;-85
2023/08/08 05:38:43;;;;;;;4.37;1.40;;;;;;;18.93;50.78;99307.44;4487879;31;33763;-84
2023/08/08 05:41:11;;;;;;;3.17;1.33;;;;;;;18.39;51.97;99314.53;4496026;31;33153;-85
2023/08/08 05:43:38;;;;;;;3.10;1.45;;;;;;;18.67;51.52;99300.00;4468761;32;33482;-84
2023/08/08 05:46:06;;;;;;;5.78;1.60;;;;;;;18.96;51.07;99302.13;4468443;32;34017;-85
2023/08/08 05:48:34;;;;;;;3.10;1.27;;;;;;;18.64;51.47;99315.84;4477636;31;34015;-85
2023/08/08 05:51:04;;;;;;;4.87;1.67;;;;;;;18.62;52.39;99316.75;4484008;32;34075;-85
2023/08/08 05:53:32;;;;;;;4.15;1.45;;;;;;;17.90;53.57;99320.53;4484183;32;34081;-84
2023/08/08 05:56:00;;;;;;;5.97;1.70;;;;;;;17.11;55.73;99314.53;4483873;32;33923;-84
2023/08/08 05:58:27;;;;;;;3.35;1.42;;;;;;;17.36;54.73;99315.13;4490696;31;33437;-86
2023/08/08 06:00:55;;;;;;;4.07;1.60;;;;;;;18.09;53.53;99324.59;4499358;31;34916;-83
2023/08/08 06:03:23;;;;;;;3.95;1.42;;;;;;;18.08;53.24;99322.87;4499581;31;34962;-86
2023/08/08 06:05:51;;;;;;;3.55;1.60;;;;;;;18.26;52.73;99311.25;4499517;31;34463;-86
2023/08/08 06:08:18;;;;;;;3.62;1.50;;;;;;;18.41;53.05;99313.63;4493437;31;33808;-84
2023/08/08 06:10:46;;;;;;;5.87;1.70;;;;;;;17.95;53.50;99314.31;4483418;32;34327;-84
2023/08/08 06:13:13;;;;;;;6.03;1.77;;;;;;;17.99;53.89;99317.75;4483443;32;34254;-85
2023/08/08 06:15:41;;;;;;;3.80;1.50;;;;;;;17.98;53.15;99311.66;4483632;32;33942;-85
2023/08/08 06:18:09;;;;;;;3.30;1.30;;;;;;;18.30;52.59;99325.19;4488219;31;34295;-84
2023/08/08 06:20:36;;;;;;;5.43;1.67;;;;;;;18.78;51.69;99328.75;4497852;31;32476;-86
2023/08/08 06:23:04;;;;;;;3.58;1.20;;;;;;;18.98;50.68;99328.41;4499598;31;34606;-85
2023/08/08 06:25:32;;;;;;;4.45;1.67;;;;;;;18.76;51.39;99329.69;4499448;31;33356;-85
2023/08/08 06:27:59;;;;;;;6.45;1.80;;;;;;;18.74;51.21;99334.94;4495484;31;33412;-86
2023/08/08 06:30:27;;;;;;;3.55;1.55;;;;;;;18.84;52.26;99336.53;4483573;31;34730;-85
2023/08/08 06:32:54;;;;;;;5.25;1.73;;;;;;;18.32;52.45;99339.13;4483811;32;35071;-84
2023/08/08 06:35:22;;;;;;;5.43;1.70;;;;;;;18.81;52.25;99328.69;4483296;32;34135;-84
2023/08/08 06:37:49;;;;;;;7.25;1.90;;;;;;;18.65;51.35;99332.47;4484594;31;33626;-86
2023/08/08 06:40:17;;;;;;;5.30;1.58;;;;;;;18.95;50.68;99331.94;4483306;31;33592;-85
2023/08/08 06:42:45;;;;;;;9.23;2.10;;;;;;;18.60;51.68;99329.03;4483567;32;34022;-85
2023/08/08 06:45:12;;;;;;;7.12;1.83;;;;;;;19.35;50.62;99330.28;4483581;32;33769;-84
2023/08/08 06:47:40;;;;;;;5.70;1.90;;;;;;;19.31;50.00;99329.47;4484302;31;34903;-85
2023/08/08 06:50:08;;;;;;;4.43;1.80;;;;;;;19.28;50.78;99329.56;4495148;31;35050;-85
2023/08/08 06:52:35;;;;;;;4.28;1.60;;;;;;;19.31;49.36;99334.75;4490894;31;34046;-87
2023/08/08 06:55:03;;;;;;;4.28;1.62;;;;;;;19.38;49.95;99336.34;4499059;31;33712;-86
2023/08/08 06:57:32;;;;;;;5.00;1.80;;;;;;;19.53;50.00;99332.53;4498928;31;33264;-85
2023/08/08 07:00:00;;;;;;;5.43;1.65;;;;;;;19.89;47.88;99338.81;4492544;31;33402;-85
2023/08/08 07:02:29;;;;;;;3.58;1.37;;;;;;;19.86;48.54;99343.28;4467581;32;34978;-85
2023/08/08 07:04:57;;;;;;;18.60;2.75;;;;;;;19.91;49.15;99346.66;4467603;32;35187;-86
2023/08/08 07:07:24;;;;;;;3.87;1.27;;;;;;;20.23;47.83;99339.78;4490283;31;33254;-85
2023/08/08 07:09:52;;;;;;;4.22;1.48;;;;;;;20.22;48.35;99340.69;4498964;31;33838;-89
2023/08/08 07:12:20;;;;;;;4.65;1.80;;;;;;;20.34;47.31;99351.81;4498753;31;32957;-85
2023/08/08 07:14:47;;;;;;;4.70;1.90;;;;;;;19.86;48.77;99354.66;4499104;31;34089;-86
2023/08/08 07:17:15;;;;;;;5.47;1.70;;;;;;;20.13;48.16;99361.06;4488883;31;33002;-85
2023/08/08 07:19:42;;;;;;;4.15;1.80;;;;;;;20.00;47.01;99356.13;4482991;32;34370;-85
2023/08/08 07:22:10;;;;;;;5.85;1.40;;;;;;;19.66;47.33;99359.47;4483450;32;34587;-86
2023/08/08 07:24:38;;;;;;;3.60;1.45;;;;;;;20.00;46.67;99364.00;4483317;32;33652;-86
2023/08/08 07:27:06;;;;;;;5.50;1.62;;;;;;;20.12;48.59;99371.66;4494450;31;33786;-85
2023/08/08 07:29:33;;;;;;;3.60;1.52;;;;;;;19.25;48.27;99369.06;4497889;31;34606;-88
2023/08/08 07:32:03;;;;;;;4.78;1.80;;;;;;;19.31;47.26;99360.16;4497088;31;33751;-86
2023/08/08 07:34:32;;;;;;;5.53;1.80;;;;;;;18.88;49.74;99372.34;4498157;31;34117;-86
2023/08/08 07:36:59;;;;;;;4.53;1.52;;;;;;;19.61;49.82;99374.47;4488743;31;34157;-86
2023/08/08 07:39:27;;;;;;;4.30;1.80;;;;;;;19.41;48.28;99370.47;4481579;32;34208;-86
2023/08/08 07:41:54;;;;;;;5.05;1.67;;;;;;;20.03;47.69;99377.09;4483249;32;33998;-86
2023/08/08 07:44:22;;;;;;;4.72;1.40;;;;;;;19.84;47.58;99372.25;4483103;32;33525;-86
2023/08/08 07:46:50;;;;;;;4.80;1.62;;;;;;;20.07;45.20;99384.88;4491671;31;33236;-83
2023/08/08 07:49:17;;;;;;;5.47;1.62;;;;;;;20.10;46.49;99389.22;4498766;31;33704;-85
2023/08/08 07:51:45;;;;;;;6.47;1.58;;;;;;;20.51;46.80;99390.06;4497443;31;33999;-84
2023/08/08 07:54:13;;;;;;;3.97;1.50;;;;;;;20.64;45.88;99373.06;4490230;31;34480;-84
2023/08/08 07:56:42;;;;;;;5.93;1.45;;;;;;;20.76;44.93;99372.78;4483271;32;33585;-84
2023/08/08 07:59:10;;;;;;;3.83;1.58;;;;;;;20.38;44.76;99373.66;4483171;32;34002;-84
2023/08/08 08:01:37;;;;;;;4.97;1.23;;;;;;;20.49;46.50;99368.13;4482619;32;35046;-85
2023/08/08 08:04:05;;;;;;;4.60;1.40;;;;;;;20.57;45.40;99374.09;4489897;31;34364;-84
2023/08/08 08:06:33;;;;;;;4.12;1.23;;;;;;;21.43;45.07;99366.63;4498849;31;33303;-83
2023/08/08 08:09:00;;;;;;;4.87;1.58;;;;;;;21.13;44.44;99364.75;4498046;31;34769;-83
2023/08/08 08:11:28;;;;;;;4.93;1.90;;;;;;;20.92;46.30;99375.00;4482744;32;34257;-84
2023/08/08 08:13:56;;;;;;;5.50;1.70;;;;;;;21.19;45.85;99373.41;4481746;32;33394;-84
2023/08/08 08:16:24;;;;;;;5.03;1.95;;;;;;;21.08;43.95;99384.22;4482635;32;33536;-84
2023/08/08 08:18:52;;;;;;;4.45;1.70;;;;;;;21.06;44.93;99376.37;4482988;31;34019;-85
2023/08/08 08:21:19;;;;;;;6.20;1.37;;;;;;;21.33;46.19;99376.56;4461288;32;34378;-83
2023/08/08 08:23:47;;;;;;;5.12;1.45;;;;;;;21.37;43.47;99379.06;4486211;31;34728;-83
2023/08/08 08:26:15;;;;;;;4.43;1.45;;;;;;;20.72;43.64;99376.37;4498288;31;33461;-85
2023/08/08 08:28:42;;;;;;;4.45;1.52;;;;;;;20.49;45.27;99390.09;4497947;31;34715;-84
2023/08/08 08:31:10;;;;;;;3.75;1.45;;;;;;;20.78;44.94;99384.13;4493091;31;34916;-84
2023/08/08 08:33:38;;;;;;;5.53;1.70;;;;;;;21.29;45.83;99385.41;4498200;31;33729;-87
2023/08/08 08:36:05;;;;;;;5.07;1.48;;;;;;;21.50;43.47;99384.00;4498070;31;34437;-84
2023/08/08 08:38:33;;;;;;;3.72;1.30;;;;;;;21.12;43.60;99385.88;4497795;31;34544;-85
2023/08/08 08:41:02;;;;;;;3.22;1.35;;;;;;;20.79;44.64;99395.53;4490996;31;33852;-86
2023/08/08 08:43:30;;;;;;;3.67;1.10;;;;;;;21.16;44.16;99392.81;4481295;32;34227;-86
2023/08/08 08:46:00;;;;;;;4.55;1.42;;;;;;;21.12;43.78;99388.53;4483742;32;33128;-85
2023/08/08 08:48:30;;;;;;;6.43;1.50;;;;;;;21.28;44.17;99384.56;4478977;32;34087;-85
2023/08/08 08:50:57;;;;;;;5.80;1.10;;;;;;;21.57;43.23;99380.28;4467814;31;34206;-85
2023/08/08 08:53:25;;;;;;;3.85;1.30;;;;;;;21.44;44.53;99386.78;4467079;32;34697;-86
2023/08/08 08:55:53;;;;;;;2.87;1.20;;;;;;;21.28;42.94;99373.16;4467256;32;33860;-87
2023/08/08 08:58:21;;;;;;;5.87;1.45;;;;;;;21.43;42.61;99388.56;4467354;32;33833;-83
2023/08/08 09:00:49;;;;;;;3.50;1.42;;;;;;;21.38;42.52;99375.53;4476919;31;33889;-85
2023/08/08 09:03:17;;;;;;;3.75;1.27;;;;;;;21.23;42.84;99370.63;4484018;32;34047;-84
2023/08/08 09:05:45;;;;;;;4.43;1.35;;;;;;;21.26;44.36;99369.69;4484045;32;33636;-84
2023/08/08 09:08:12;;;;;;;3.30;1.40;;;;;;;21.92;43.60;99378.38;4483959;32;33956;-85
2023/08/08 09:10:40;;;;;;;4.47;1.23;;;;;;;21.83;44.01;99387.44;4478711;31;33414;-86
2023/08/08 09:13:08;;;;;;;5.07;1.40;;;;;;;21.56;43.39;99383.84;4468360;32;33518;-85
2023/08/08 09:15:35;;;;;;;6.07;1.48;;;;;;;21.51;42.84;99383.94;4468604;32;33399;-84
2023/08/08 09:18:03;;;;;;;5.60;1.80;;;;;;;21.19;43.63;99383.94;4468579;32;34081;-85
2023/08/08 09:20:31;;;;;;;3.70;1.20;;;;;;;21.73;43.32;99384.19;4477820;31;34068;-84
2023/08/08 09:22:58;;;;;;;3.75;1.62;;;;;;;21.59;43.88;99384.63;4499790;31;34043;-84
2023/08/08 09:25:26;;;;;;;4.30;1.42;;;;;;;21.44;44.30;99384.16;4499870;31;33146;-85
2023/08/08 09:27:54;;;;;;;4.43;1.70;;;;;;;21.49;44.92;99392.81;4499695;31;33778;-87
2023/08/08 09:30:21;;;;;;;3.12;1.20;;;;;;;21.30;43.74;99388.03;4497720;31;34087;-84
2023/08/08 09:32:50;;;;;;;4.07;1.27;;;;;;;21.50;43.11;99390.13;4484251;32;33842;-86
2023/08/08 09:35:18;;;;;;;3.62;1.42;;;;;;;21.70;43.48;99392.19;4483700;32;33253;-87
2023/08/08 09:37:46;;;;;;;3.92;1.50;;;;;;;21.43;41.98;99383.31;4483827;32;34600;-85
2023/08/08 09:40:14;;;;;;;5.05;1.60;;;;;;;21.28;43.78;99387.19;4484337;32;33750;-85
2023/08/08 09:42:42;;;;;;;6.37;1.92;;;;;;;21.04;43.72;99395.78;4487493;31;33266;-86
2023/08/08 09:45:10;;;;;;;4.45;1.48;;;;;;;21.73;42.22;99392.13;4499019;31;33140;-86
2023/08/08 09:47:38;;;;;;;4.70;1.80;;;;;;;20.97;44.47;99389.78;4498268;31;33773;-87
2023/08/08 09:50:07;;;;;;;4.12;1.50;;;;;;;21.44;42.21;99378.88;4499598;31;34330;-85
2023/08/08 09:52:38;;;;;;;5.37;1.75;;;;;;;21.42;43.81;99386.84;4499924;31;34087;-87
2023/08/08 09:55:07;;;;;;;6.97;1.40;;;;;;;21.52;43.68;99390.13;4498206;31;33729;-85
2023/08/08 09:57:35;;;;;;;4.47;1.70;;;;;;;21.40;42.42;99387.78;4485325;31;33947;-85
2023/08/08 10:00:05;;;;;;;5.30;1.42;;;;;;;21.44;43.08;99387.69;4498323;31;33957;-86
2023/08/08 10:02:33;;;;;;;5.35;1.60;;;;;;;21.58;45.18;99398.69;4498492;31;34185;-87
2023/08/08 10:05:03;;;;;;;3.62;1.48;;;;;;;21.78;43.60;99384.94;4485358;31;32641;-87
2023/08/08 10:07:32;;;;;;;5.50;1.95;;;;;;;21.67;42.78;99391.41;4498259;31;33626;-85
2023/08/08 10:09:59;;;;;;;3.92;1.30;;;;;;;21.11;43.65;99392.06;4499967;31;33789;-86
2023/08/08 10:12:27;;;;;;;4.18;1.50;;;;;;;21.61;42.10;99393.34;4477816;31;33882;-86
2023/08/08 10:14:55;;;;;;;5.40;1.70;;;;;;;21.70;44.50;99386.06;4482148;32;33320;-85
2023/08/08 10:17:23;;;;;;;6.47;1.77;;;;;;;21.77;46.77;99385.84;4469180;32;34521;-85
2023/08/08 10:19:54;;;;;;;9.27;1.75;;;;;;;21.79;41.56;99375.25;4483926;32;34614;-85
2023/08/08 10:22:24;;;;;;;3.75;1.52;;;;;;;21.76;44.29;99380.62;4482492;32;34612;-85
2023/08/08 10:24:53;;;;;;;4.00;2.10;;;;;;;22.20;41.11;99376.66;4483739;32;33321;-85
2023/08/08 10:27:31;;;;;;;8.55;2.80;;;;;;;21.74;42.59;99371.88;4482400;32;33598;-85
2023/08/08 10:30:09;;;;;;;4.35;1.83;;;;;;;21.76;43.63;99376.19;4483571;32;33789;-85
2023/08/08 10:32:41;;;;;;;4.25;1.77;;;;;;;21.86;43.84;99376.81;4465422;32;34757;-86
2023/08/08 10:35:11;;;;;;;6.30;2.08;;;;;;;21.74;40.87;99366.59;4467894;32;33361;-86
2023/08/08 10:37:39;;;;;;;4.80;1.30;;;;;;;21.81;41.57;99374.28;4468115;32;33712;-86
2023/08/08 10:40:08;;;;;;;6.47;1.52;;;;;;;21.49;42.56;99367.31;4466725;32;34936;-85
2023/08/08 10:42:43;;;;;;;5.12;1.60;;;;;;;21.92;41.26;99365.19;4480265;32;34107;-85
2023/08/08 10:45:13;;;;;;;;;;;;;;;21.93;40.85;99367.75;4484065;32;33535;-84
2023/08/08 10:47:42;;;;;;;23.40;14.75;;;;;;;21.52;42.20;99361.09;4483351;32;34467;-86
2023/08/08 10:50:14;;;;;;;3.92;2.10;;;;;;;21.78;43.75;99371.75;4483414;32;34078;-86
2023/08/08 10:52:54;;;;;;;4.93;2.00;;;;;;;22.14;40.37;99362.78;4483695;32;34563;-83
2023/08/08 10:55:23;;;;;;;6.35;2.10;;;;;;;22.27;41.05;99362.31;4483414;32;34188;-84
2023/08/08 10:57:55;;;;;;;4.87;1.98;;;;;;;21.96;41.51;99357.12;4483947;32;33821;-85
2023/08/08 11:00:31;;;;;;;4.55;1.73;;;;;;;21.90;41.32;99359.97;4483432;32;34639;-84
2023/08/08 11:02:59;;;;;;;4.62;1.60;;;;;;;22.51;39.82;99360.69;4482140;32;33677;-85
2023/08/08 11:05:31;;;;;;;6.90;3.00;;;;;;;22.16;39.86;99353.91;4483132;32;33068;-88
2023/08/08 11:08:00;;;;;;;3.42;1.40;;;;;;;21.96;42.97;99353.63;4482723;32;32839;-85
2023/08/08 11:10:30;;;;;;;8.00;3.20;;;;;;;22.49;42.22;99359.88;4483281;32;34168;-92
2023/08/08 11:13:00;;;;;;;7.70;3.53;;;;;;;22.56;40.80;99349.97;4482024;32;34590;-85
2023/08/08 11:15:29;;;;;;;5.25;2.42;;;;;;;22.66;40.91;99346.13;4483220;32;34282;-85
2023/08/08 11:17:56;;;;;;;3.15;1.30;;;;;;;22.83;39.81;99346.37;4483337;32;33332;-78
2023/08/08 11:20:28;;;;;;;8.35;2.20;;;;;;;22.61;40.33;99350.66;4477642;32;35094;-85
2023/08/08 11:22:56;;;;;;;4.55;1.80;;;;;;;22.22;41.86;99353.69;4467732;32;34386;-85
2023/08/08 11:25:29;;;;;;;5.05;2.28;;;;;;;22.78;41.95;99353.63;4467635;32;33274;-85
2023/08/08 11:27:57;;;;;;;6.72;2.05;;;;;;;22.92;40.99;99344.38;4467536;32;33891;-85
2023/08/08 11:30:29;;;;;;;4.28;1.50;;;;;;;22.93;40.60;99346.97;4467453;32;34070;-86
2023/08/08 11:32:57;;;;;;;5.82;2.67;;;;;;;23.54;39.73;99343.91;4480586;32;34593;-85
2023/08/08 11:35:27;;;;;;;9.13;2.75;;;;;;;22.96;39.63;99340.72;4483260;32;34529;-85
2023/08/08 11:37:57;;;;;;;5.18;2.15;;;;;;;23.17;42.54;99339.94;4483408;32;34610;-86
2023/08/08 11:40:26;;;;;;;6.82;1.60;;;;;;;22.67;40.37;99328.47;4481191;32;34618;-84